Etusivu
METAR-TAF:

METAR-TAF

Lentoasemat :

Jackson, Mississippi, Yhdysvallat

Leveyspiiri: 32-19-11N, Pituuspiiri: 090-04-39W, korkeus merenpinnasta: 105 m

Tämänhetkinen sää

Tämä raportti tehtiin 1 tunti ja 5 minuuttia sitten, kello 05.54 UTC
Tuuli 3 kn etelästä/kaakosta
Lämpötila 23°C
Kosteus 89%
Ilmanpaine 1016 hPa
Näkyvyys: 16.1 km
selkeää

METAR: KJAN 170554Z AUTO 15003KT 10SM CLR 23/21 A3001 RMK AO2 SLP158 T02330206 10311 20233 403610217 50003

Aika: 01:59 (06:59 UTC)

Sääennuste

Tämä raportti tehtiin 1 tunti ja 39 minuuttia sitten, kello 05.20 UTC
Ennuste voimassa 17. päivästä klo 06 UTC - 18. päivään klo 06 UTC
Tuuli 3 kn idästä/kaakosta
Näkyvyys: 10 km
selkeää

TAF: KJAN 170520Z 1706/1806 11003KT P6SM SKC

Säähavainnot ja -ennusteet yli 4000 lentoasemalta (METAR- ja TAF-raportit).

Käytössä olevat sääasemat on merkitty karttaan keltaisilla ja punaisilla pisteillä.

Aseta hiiri pisteen päälle nähdäksesi sääaseman nimen.

Klikkaa sitten nähdäksesi säähavainnot ja -ennusteet.

Kartan vaihtaminen: klikkaa mustalla rastilla varustettuja vihreitä pisteitä, niin voit zoomata sisään; viivalla varustettua vihreää pistettä, niin voit zoomata ulos tai vihreitä nuolia, niin pääset viereisille kartoille.


METAR-TAF: